Ponderosa, New Mexico
Current Conditions -  °F | °C
As of 4:35 PM on Wednesday 22 Oct 2014 (Local Time) from KLAM Reporting Station
Scattered Clouds Scattered Clouds  
Wind Chill: 62°   Ceiling: Unl
Heat Index: 62°   Visibility: 10mi
Dew Point: 40°   Wind: 6mph
Humidity: 44%   Direction: 170°S
Pressure: 30.22"   Gusts: NA
Location:  35.66°N, 106.67°W
Report Text: KLAM 222235Z AUTO 17005KT 10SM SCT090 17/05 A3022 RMK AO2 T01690046
Loading
Personal Weather Stations






























Interactive Weather Map
Tropical Storm Tracking
New forecast layout! Learn more

10-Day Weather Forecast

Advertisements
Track Severe Weather on mobile